createdAt,value
2019-05-30T00:01:13.663Z,9.00
2019-05-30T00:03:43.430Z,9.10
2019-05-30T00:06:13.078Z,9.10
2019-05-30T00:08:42.738Z,9.10
2019-05-30T00:11:12.361Z,9.00
2019-05-30T00:13:42.194Z,9.00
2019-05-30T00:16:11.819Z,9.20
2019-05-30T00:18:41.484Z,9.30
2019-05-30T00:21:11.126Z,9.20
2019-05-30T00:23:40.869Z,9.40
2019-05-30T00:26:10.505Z,9.50
2019-05-30T00:28:40.156Z,9.50
2019-05-30T00:31:09.777Z,9.40
2019-05-30T00:33:39.432Z,9.40
2019-05-30T00:36:09.062Z,9.40
2019-05-30T00:38:38.722Z,9.40
2019-05-30T00:41:08.382Z,9.50
2019-05-30T00:43:38.006Z,9.60
2019-05-30T00:46:07.637Z,9.60
2019-05-30T00:48:37.288Z,9.60
2019-05-30T00:51:06.922Z,9.50
2019-05-30T00:53:36.561Z,9.50
2019-05-30T00:56:06.829Z,9.40
2019-05-30T00:58:36.535Z,9.40
2019-05-30T01:01:07.098Z,9.50
2019-05-30T01:03:36.888Z,9.60
2019-05-30T01:06:07.278Z,9.60
2019-05-30T01:08:37.105Z,9.50
2019-05-30T01:11:07.390Z,9.40
2019-05-30T01:13:37.093Z,9.30
2019-05-30T01:16:07.328Z,9.30
2019-05-30T01:18:37.082Z,9.20
2019-05-30T01:21:07.411Z,9.20
2019-05-30T01:23:38.841Z,9.30
2019-05-30T01:26:08.496Z,9.30
2019-05-30T01:28:38.113Z,9.40
2019-05-30T01:31:10.987Z,9.40
2019-05-30T01:33:39.005Z,9.40
2019-05-30T01:36:08.662Z,9.40
2019-05-30T01:38:38.358Z,9.30
2019-05-30T01:41:08.106Z,9.20
2019-05-30T01:43:37.757Z,9.10
2019-05-30T01:46:08.352Z,9.20
2019-05-30T01:48:38.068Z,9.20
2019-05-30T01:51:08.682Z,9.30
2019-05-30T01:53:38.458Z,9.30
2019-05-30T01:56:08.932Z,9.30
2019-05-30T01:58:38.721Z,9.40
2019-05-30T02:01:23.723Z,9.40
2019-05-30T02:03:39.684Z,9.40
2019-05-30T02:06:09.434Z,9.40
2019-05-30T02:08:39.064Z,9.60
2019-05-30T02:11:09.575Z,9.70
2019-05-30T02:13:39.322Z,9.70
2019-05-30T02:16:09.938Z,9.80
2019-05-30T02:18:39.710Z,9.90
2019-05-30T02:21:10.024Z,9.80
2019-05-30T02:23:39.696Z,9.90
2019-05-30T02:26:10.518Z,9.90
2019-05-30T02:28:40.274Z,9.90
2019-05-30T02:31:12.068Z,9.90
2019-05-30T02:33:41.228Z,10.00
2019-05-30T02:36:12.533Z,10.00
2019-05-30T02:38:42.141Z,10.00
2019-05-30T02:41:13.141Z,10.00
2019-05-30T02:43:42.840Z,10.00
2019-05-30T02:46:12.686Z,10.00
2019-05-30T02:49:04.339Z,9.90
2019-05-30T02:51:33.038Z,9.80
2019-05-30T02:54:04.063Z,9.70
2019-05-30T02:56:33.942Z,9.60
2019-05-30T02:59:04.310Z,9.60
2019-05-30T03:01:34.973Z,9.60
2019-05-30T03:04:06.222Z,9.70
2019-05-30T03:06:36.510Z,9.60
2019-05-30T03:09:09.124Z,9.50
2019-05-30T03:11:38.900Z,9.60
2019-05-30T03:14:12.158Z,9.70
2019-05-30T03:16:39.938Z,9.70
2019-05-30T03:19:11.084Z,9.80
2019-05-30T03:21:40.995Z,9.70
2019-05-30T03:24:12.382Z,9.70
2019-05-30T03:26:41.959Z,9.50
2019-05-30T03:29:12.556Z,9.50
2019-05-30T03:31:45.105Z,9.50
2019-05-30T03:34:25.650Z,9.50
2019-05-30T03:36:46.167Z,9.50
2019-05-30T03:39:15.853Z,9.30
2019-05-30T03:41:45.657Z,9.40
2019-05-30T03:44:15.778Z,9.40
2019-05-30T03:46:51.556Z,9.40
2019-05-30T03:49:24.254Z,9.50
2019-05-30T03:51:56.209Z,9.50
2019-05-30T03:54:27.173Z,9.50
2019-05-30T03:57:20.804Z,9.50
2019-05-30T04:00:13.636Z,9.40
2019-05-30T04:02:58.381Z,9.20
2019-05-30T04:05:34.781Z,9.30
2019-05-30T04:08:09.440Z,9.10
2019-05-30T04:10:41.846Z,9.10
2019-05-30T04:13:16.797Z,9.20
2019-05-30T04:15:45.872Z,9.30
2019-05-30T04:18:16.466Z,9.50
2019-05-30T04:20:46.389Z,9.40
2019-05-30T04:23:16.910Z,9.40
2019-05-30T04:25:47.206Z,9.40
2019-05-30T04:28:18.514Z,9.40
2019-05-30T04:30:48.105Z,9.50
2019-05-30T04:33:31.616Z,9.50
2019-05-30T04:35:49.113Z,9.50
2019-05-30T04:38:19.538Z,9.50
2019-05-30T04:40:49.399Z,9.50
2019-05-30T04:43:20.337Z,9.60
2019-05-30T04:45:50.102Z,9.60
2019-05-30T04:48:21.256Z,9.40
2019-05-30T04:50:51.081Z,9.70
2019-05-30T04:53:21.149Z,9.70
2019-05-30T04:55:50.973Z,9.80
2019-05-30T04:58:23.795Z,9.70
2019-05-30T05:00:51.992Z,9.70
2019-05-30T05:03:43.476Z,9.70
2019-05-30T05:05:53.002Z,9.70
2019-05-30T05:08:22.679Z,9.80
2019-05-30T05:10:52.302Z,9.80
2019-05-30T05:13:22.579Z,9.80
2019-05-30T05:15:52.401Z,9.80
2019-05-30T05:18:23.450Z,9.90
2019-05-30T05:20:53.269Z,9.90
2019-05-30T05:23:23.413Z,9.90
2019-05-30T05:26:00.699Z,10.00
2019-05-30T05:28:24.535Z,10.10
2019-05-30T05:30:54.175Z,10.00
2019-05-30T05:33:25.554Z,10.20
2019-05-30T05:35:55.185Z,10.20
2019-05-30T05:38:24.848Z,10.20
2019-05-30T05:40:54.494Z,10.10
2019-05-30T05:43:24.506Z,10.10
2019-05-30T05:45:54.266Z,10.20
2019-05-30T05:48:24.742Z,10.10
2019-05-30T05:50:54.522Z,10.10
2019-05-30T05:53:25.091Z,10.10
2019-05-30T05:55:54.906Z,10.30
2019-05-30T05:58:26.384Z,10.40
2019-05-30T06:00:55.824Z,10.30
2019-05-30T06:03:25.553Z,10.30
2019-05-30T06:05:55.466Z,10.40
2019-05-30T06:08:25.850Z,10.30
2019-05-30T06:10:55.557Z,10.30
2019-05-30T06:13:25.214Z,10.50
2019-05-30T06:15:54.854Z,10.40
2019-05-30T06:18:24.861Z,10.40
2019-05-30T06:20:54.487Z,10.30
2019-05-30T06:23:25.639Z,10.40
2019-05-30T06:25:55.410Z,10.50
2019-05-30T06:28:26.183Z,10.50
2019-05-30T06:30:58.886Z,10.70
2019-05-30T06:33:27.287Z,10.70
2019-05-30T06:35:56.925Z,10.80
2019-05-30T06:38:32.561Z,10.80
2019-05-30T06:41:02.202Z,10.90
2019-05-30T06:43:51.227Z,10.80
2019-05-30T06:46:22.006Z,10.90
2019-05-30T06:48:51.858Z,10.90
2019-05-30T06:51:22.580Z,10.80
2019-05-30T06:53:52.512Z,10.90
2019-05-30T06:56:23.168Z,11.00
2019-05-30T06:58:53.020Z,10.90
2019-05-30T07:01:23.733Z,11.00
2019-05-30T07:03:53.706Z,10.90
2019-05-30T07:06:25.039Z,11.10
2019-05-30T07:08:54.812Z,11.20
2019-05-30T07:11:24.762Z,10.90
2019-05-30T07:13:54.530Z,11.00
2019-05-30T07:16:25.265Z,11.10
2019-05-30T07:18:55.081Z,11.30
2019-05-30T07:21:25.533Z,11.40
2019-05-30T07:23:55.274Z,11.50
2019-05-30T07:26:25.640Z,11.40
2019-05-30T07:28:55.309Z,11.50
2019-05-30T07:31:26.052Z,11.40
2019-05-30T07:33:55.954Z,11.30
2019-05-30T07:36:28.473Z,11.30
2019-05-30T07:38:58.146Z,11.30
2019-05-30T07:41:28.696Z,11.30
2019-05-30T07:44:17.805Z,11.40
2019-05-30T07:46:47.478Z,11.50
2019-05-30T07:49:17.178Z,11.50
2019-05-30T07:51:46.837Z,11.70
2019-05-30T07:54:16.478Z,11.80
2019-05-30T07:56:46.130Z,12.00
2019-05-30T07:59:15.765Z,12.10
2019-05-30T08:01:45.878Z,12.10
2019-05-30T08:04:15.517Z,12.00
2019-05-30T08:06:45.216Z,11.70
2019-05-30T08:09:14.910Z,11.60
2019-05-30T08:11:44.550Z,11.80
2019-05-30T08:14:27.014Z,12.10
2019-05-30T08:16:56.737Z,12.10
2019-05-30T08:19:27.663Z,12.40
2019-05-30T08:21:57.418Z,12.60
2019-05-30T08:24:28.168Z,12.70
2019-05-30T08:26:57.927Z,12.90
2019-05-30T08:29:28.042Z,13.00
2019-05-30T08:31:57.701Z,12.80
2019-05-30T08:34:28.451Z,13.00
2019-05-30T08:36:58.205Z,13.30
2019-05-30T08:39:28.870Z,13.40
2019-05-30T08:41:58.734Z,13.70
2019-05-30T08:44:29.412Z,14.00
2019-05-30T08:46:59.142Z,14.40
2019-05-30T08:49:29.841Z,14.80
2019-05-30T08:52:11.491Z,15.10
2019-05-30T08:54:41.135Z,14.90
2019-05-30T08:57:10.867Z,15.20
2019-05-30T08:59:40.761Z,15.80
2019-05-30T09:02:10.461Z,15.80
2019-05-30T09:04:40.091Z,16.00
2019-05-30T09:07:11.373Z,16.30
2019-05-30T09:09:42.158Z,16.30
2019-05-30T09:12:11.995Z,16.00
2019-05-30T09:14:42.856Z,15.70
2019-05-30T09:17:12.701Z,15.80
2019-05-30T09:19:43.219Z,16.10
2019-05-30T09:22:13.034Z,16.00
2019-05-30T09:24:43.844Z,16.00
2019-05-30T09:27:13.626Z,15.80
2019-05-30T09:29:44.495Z,16.10
2019-05-30T09:32:14.414Z,16.10
2019-05-30T09:34:44.874Z,16.70
2019-05-30T09:37:14.612Z,16.60
2019-05-30T09:39:45.455Z,16.60
2019-05-30T09:42:15.305Z,17.00
2019-05-30T09:44:48.948Z,16.80
2019-05-30T09:47:16.224Z,17.20
2019-05-30T09:49:46.566Z,16.50
2019-05-30T09:52:16.286Z,16.70
2019-05-30T09:54:45.980Z,17.00
2019-05-30T09:57:15.566Z,17.60
2019-05-30T09:59:46.624Z,17.80
2019-05-30T10:02:16.492Z,18.00
2019-05-30T10:04:46.896Z,18.20
2019-05-30T10:07:16.681Z,18.20
2019-05-30T10:09:47.108Z,18.00
2019-05-30T10:12:16.859Z,18.10
2019-05-30T10:14:46.891Z,18.00
2019-05-30T10:17:16.611Z,18.50
2019-05-30T10:19:47.159Z,18.30
2019-05-30T10:22:16.910Z,18.50
2019-05-30T10:24:47.601Z,18.70
2019-05-30T10:27:17.822Z,18.70
2019-05-30T10:29:47.681Z,18.50
2019-05-30T10:32:18.356Z,18.30
2019-05-30T10:34:48.073Z,18.60
2019-05-30T10:37:17.729Z,18.70
2019-05-30T10:39:47.409Z,19.10
2019-05-30T10:42:17.006Z,18.80
2019-05-30T10:44:48.316Z,19.20
2019-05-30T10:47:17.961Z,19.30
2019-05-30T10:49:48.573Z,19.50
2019-05-30T10:52:18.943Z,19.40
2019-05-30T10:54:49.408Z,19.60
2019-05-30T10:57:19.125Z,19.60
2019-05-30T10:59:49.362Z,19.90
2019-05-30T11:02:20.013Z,20.00
2019-05-30T11:04:50.750Z,20.10
2019-05-30T11:07:32.365Z,19.80
2019-05-30T11:10:05.066Z,19.60
2019-05-30T11:12:34.721Z,20.10
2019-05-30T11:15:05.794Z,20.10
2019-05-30T11:17:35.460Z,20.20
2019-05-30T11:20:06.882Z,19.90
2019-05-30T11:22:36.550Z,19.80
2019-05-30T11:25:06.313Z,19.80
2019-05-30T11:27:35.953Z,19.70
2019-05-30T11:30:07.734Z,19.90
2019-05-30T11:32:37.357Z,19.80
2019-05-30T11:35:07.276Z,20.00
2019-05-30T11:37:36.901Z,20.50
2019-05-30T11:40:07.111Z,20.50
2019-05-30T11:42:36.735Z,20.40
2019-05-30T11:45:07.822Z,20.10
2019-05-30T11:47:37.458Z,20.50
2019-05-30T11:50:08.245Z,20.60
2019-05-30T11:52:37.881Z,21.00
2019-05-30T11:55:10.279Z,20.80
2019-05-30T11:57:39.914Z,21.00
2019-05-30T12:00:10.965Z,21.00
2019-05-30T12:02:40.576Z,21.10
2019-05-30T12:05:10.866Z,20.90
2019-05-30T12:07:40.510Z,21.00
2019-05-30T12:10:10.685Z,21.00
2019-05-30T12:12:40.318Z,20.80
2019-05-30T12:15:10.598Z,21.00
2019-05-30T12:17:40.239Z,20.70
2019-05-30T12:20:10.524Z,21.20
2019-05-30T12:22:40.218Z,21.10
2019-05-30T12:25:21.677Z,21.10
2019-05-30T12:27:52.050Z,21.30
2019-05-30T12:30:22.710Z,21.30
2019-05-30T12:32:52.595Z,21.30
2019-05-30T12:35:22.526Z,21.40
2019-05-30T12:37:56.028Z,21.60
2019-05-30T12:40:23.681Z,21.80
2019-05-30T12:42:56.398Z,21.90
2019-05-30T12:45:25.405Z,21.90
2019-05-30T12:47:55.160Z,21.90
2019-05-30T12:50:25.305Z,21.70
2019-05-30T12:52:55.492Z,21.90
2019-05-30T12:55:25.349Z,21.60
2019-05-30T12:57:54.981Z,21.50
2019-05-30T13:00:33.254Z,21.70
2019-05-30T13:03:03.095Z,21.90
2019-05-30T13:05:32.913Z,22.00
2019-05-30T13:08:18.044Z,22.00
2019-05-30T13:10:33.970Z,21.80
2019-05-30T13:13:04.233Z,21.70
2019-05-30T13:15:33.873Z,21.70
2019-05-30T13:18:03.499Z,21.20
2019-05-30T13:20:33.282Z,21.20
2019-05-30T13:23:02.897Z,21.20
2019-05-30T13:25:32.608Z,21.20
2019-05-30T13:28:06.274Z,21.50
2019-05-30T13:30:33.642Z,21.80
2019-05-30T13:33:22.597Z,21.90
2019-05-30T13:35:52.242Z,21.60
2019-05-30T13:38:26.664Z,21.90
2019-05-30T13:40:53.126Z,21.80
2019-05-30T13:43:22.744Z,22.00
2019-05-30T13:45:52.389Z,21.60
2019-05-30T13:48:22.023Z,21.50
2019-05-30T13:50:51.670Z,21.60
2019-05-30T13:53:21.300Z,22.10
2019-05-30T13:55:50.943Z,22.10
2019-05-30T13:58:20.642Z,22.20
2019-05-30T14:00:50.349Z,22.20
2019-05-30T14:03:19.974Z,21.90
2019-05-30T14:05:49.800Z,21.50
2019-05-30T14:08:19.430Z,21.20
2019-05-30T14:10:49.108Z,21.50
2019-05-30T14:13:18.744Z,22.00
2019-05-30T14:15:48.398Z,21.90
2019-05-30T14:18:18.088Z,21.70
2019-05-30T14:20:47.746Z,21.40
2019-05-30T14:23:17.373Z,21.10
2019-05-30T14:25:47.029Z,21.00
2019-05-30T14:28:16.654Z,20.90
2019-05-30T14:30:46.296Z,21.00
2019-05-30T14:33:15.926Z,21.40
2019-05-30T14:35:45.586Z,21.70
2019-05-30T14:38:15.219Z,21.30
2019-05-30T14:40:44.858Z,21.20
2019-05-30T14:43:14.492Z,21.50
2019-05-30T14:45:44.141Z,21.80
2019-05-30T14:48:13.760Z,21.90
2019-05-30T14:50:43.406Z,21.90
2019-05-30T14:53:13.134Z,22.00
2019-05-30T14:55:42.776Z,21.90
2019-05-30T14:58:13.390Z,21.60
2019-05-30T15:00:43.061Z,21.40
2019-05-30T15:03:15.760Z,21.30
2019-05-30T15:05:43.971Z,21.20
2019-05-30T15:08:14.608Z,20.90
2019-05-30T15:10:44.253Z,20.70
2019-05-30T15:13:13.878Z,20.60
2019-05-30T15:15:43.533Z,20.60
2019-05-30T15:18:13.371Z,20.80
2019-05-30T15:20:43.109Z,20.60
2019-05-30T15:23:13.817Z,20.30
2019-05-30T15:25:43.661Z,20.10
2019-05-30T15:28:14.126Z,20.20
2019-05-30T15:30:43.969Z,20.20
2019-05-30T15:33:14.509Z,20.40
2019-05-30T15:35:44.157Z,20.70
2019-05-30T15:38:15.007Z,20.60
2019-05-30T15:40:44.713Z,20.50
2019-05-30T15:43:15.498Z,20.20
2019-05-30T15:45:45.184Z,20.20
2019-05-30T15:48:14.826Z,20.10
2019-05-30T15:50:44.450Z,20.00
2019-05-30T15:53:15.136Z,20.10
2019-05-30T15:55:44.826Z,20.00
2019-05-30T15:58:15.632Z,20.10
2019-05-30T16:00:45.798Z,20.20
2019-05-30T16:03:16.481Z,20.10
2019-05-30T16:05:46.326Z,20.10
2019-05-30T16:08:16.779Z,20.20
2019-05-30T16:10:46.498Z,20.10
2019-05-30T16:13:17.376Z,19.90
2019-05-30T16:15:47.079Z,19.80
2019-05-30T16:18:17.667Z,19.80
2019-05-30T16:20:47.450Z,19.90
2019-05-30T16:23:18.706Z,20.00
2019-05-30T16:25:48.597Z,20.00
2019-05-30T16:28:21.793Z,20.10
2019-05-30T16:30:51.599Z,19.70
2019-05-30T16:33:22.143Z,19.80
2019-05-30T16:35:51.828Z,20.00
2019-05-30T16:38:22.203Z,19.90
2019-05-30T16:40:51.842Z,19.80
2019-05-30T16:43:22.421Z,19.80
2019-05-30T16:45:52.054Z,19.80
2019-05-30T16:48:22.531Z,19.80
2019-05-30T16:50:52.344Z,19.70
2019-05-30T16:53:24.531Z,19.80
2019-05-30T16:55:53.375Z,19.90
2019-05-30T16:58:23.800Z,20.00
2019-05-30T17:00:53.635Z,19.80
2019-05-30T17:03:24.094Z,19.70
2019-05-30T17:05:54.060Z,19.70
2019-05-30T17:08:24.431Z,19.80
2019-05-30T17:10:54.214Z,19.80
2019-05-30T17:13:23.959Z,19.70
2019-05-30T17:15:53.563Z,19.80
2019-05-30T17:18:24.573Z,19.70
2019-05-30T17:20:54.199Z,19.70
2019-05-30T17:23:24.852Z,19.70
2019-05-30T17:25:54.468Z,19.80
2019-05-30T17:28:24.464Z,19.60
2019-05-30T17:30:54.296Z,19.50
2019-05-30T17:33:25.215Z,19.50
2019-05-30T17:35:55.245Z,19.50
2019-05-30T17:38:24.972Z,19.40
2019-05-30T17:40:54.606Z,19.30
2019-05-30T17:43:25.028Z,19.30
2019-05-30T17:45:54.698Z,19.20
2019-05-30T17:48:25.539Z,19.10
2019-05-30T17:50:55.252Z,19.00
2019-05-30T17:53:25.910Z,18.90
2019-05-30T17:55:55.654Z,18.80
2019-05-30T17:58:25.973Z,18.60
2019-05-30T18:00:57.255Z,18.40
2019-05-30T18:03:27.115Z,18.20
2019-05-30T18:05:56.743Z,18.10
2019-05-30T18:08:26.878Z,17.90
2019-05-30T18:10:56.721Z,17.80
2019-05-30T18:13:27.090Z,17.80
2019-05-30T18:15:56.919Z,17.60
2019-05-30T18:18:27.278Z,17.60
2019-05-30T18:20:57.136Z,17.30
2019-05-30T18:23:27.583Z,17.20
2019-05-30T18:25:57.422Z,17.20
2019-05-30T18:28:27.813Z,17.10
2019-05-30T18:30:57.462Z,16.90
2019-05-30T18:33:28.348Z,16.70
2019-05-30T18:35:58.101Z,16.50
2019-05-30T18:38:28.405Z,16.50
2019-05-30T18:41:10.838Z,16.30
2019-05-30T18:43:29.362Z,16.40
2019-05-30T18:45:59.043Z,16.20
2019-05-30T18:48:29.284Z,16.10
2019-05-30T18:50:59.642Z,16.10
2019-05-30T18:53:30.321Z,16.10
2019-05-30T18:56:00.031Z,15.90
2019-05-30T18:58:29.741Z,15.80
2019-05-30T19:00:59.392Z,15.70
2019-05-30T19:03:29.031Z,15.60
2019-05-30T19:05:58.762Z,15.60
2019-05-30T19:08:29.803Z,15.60
2019-05-30T19:10:59.701Z,15.60
2019-05-30T19:13:29.452Z,15.40
2019-05-30T19:15:59.254Z,15.40
2019-05-30T19:18:29.496Z,15.50
2019-05-30T19:20:59.186Z,15.40
2019-05-30T19:23:29.942Z,15.20
2019-05-30T19:25:59.776Z,15.10
2019-05-30T19:28:30.416Z,15.10
2019-05-30T19:31:00.183Z,15.20
2019-05-30T19:33:30.884Z,15.10
2019-05-30T19:36:00.651Z,15.20
2019-05-30T19:38:31.280Z,15.20
2019-05-30T19:41:00.989Z,15.30
2019-05-30T19:43:31.749Z,15.30
2019-05-30T19:46:01.490Z,15.20
2019-05-30T19:48:32.273Z,15.20
2019-05-30T19:51:03.435Z,15.10
2019-05-30T19:53:52.430Z,15.00
2019-05-30T19:56:22.080Z,15.00
2019-05-30T19:58:52.198Z,15.00
2019-05-30T20:01:21.841Z,14.90
2019-05-30T20:03:51.471Z,15.00
2019-05-30T20:06:24.038Z,14.90
2019-05-30T20:08:55.817Z,14.90
2019-05-30T20:11:23.868Z,15.00
2019-05-30T20:13:53.496Z,14.80
2019-05-30T20:16:23.215Z,14.80
2019-05-30T20:18:52.954Z,14.70
2019-05-30T20:21:22.683Z,14.70
2019-05-30T20:23:58.329Z,14.70
2019-05-30T20:26:23.798Z,14.90
2019-05-30T20:28:53.479Z,14.80
2019-05-30T20:31:23.139Z,14.90
2019-05-30T20:33:53.076Z,14.90
2019-05-30T20:36:22.973Z,14.90
2019-05-30T20:38:52.679Z,14.90
2019-05-30T20:41:22.611Z,14.80
2019-05-30T20:43:52.310Z,14.70
2019-05-30T20:46:23.686Z,14.60
2019-05-30T20:48:53.632Z,14.60
2019-05-30T20:51:24.565Z,14.60
2019-05-30T20:53:54.852Z,14.60
2019-05-30T20:56:24.618Z,14.60
2019-05-30T20:58:56.155Z,14.50
2019-05-30T21:01:25.945Z,14.50
2019-05-30T21:03:55.812Z,14.50
2019-05-30T21:06:26.110Z,14.50
2019-05-30T21:08:55.793Z,14.60
2019-05-30T21:11:26.081Z,14.60
2019-05-30T21:13:55.778Z,14.40
2019-05-30T21:16:27.477Z,14.40
2019-05-30T21:18:58.310Z,14.30
2019-05-30T21:21:28.320Z,14.20
2019-05-30T21:23:58.050Z,14.10
2019-05-30T21:26:27.653Z,14.20
2019-05-30T21:28:57.310Z,14.30
2019-05-30T21:31:27.385Z,14.30
2019-05-30T21:33:57.128Z,14.30
2019-05-30T21:36:27.154Z,14.30
2019-05-30T21:38:56.901Z,14.20
2019-05-30T21:41:26.539Z,14.20
2019-05-30T21:43:56.177Z,14.10
2019-05-30T21:46:25.809Z,14.00
2019-05-30T21:48:55.946Z,14.00
2019-05-30T21:51:25.580Z,13.90
2019-05-30T21:53:55.612Z,14.00
2019-05-30T21:56:25.237Z,14.00
2019-05-30T21:58:55.028Z,14.00
2019-05-30T22:01:28.038Z,14.00
2019-05-30T22:03:59.647Z,14.00
2019-05-30T22:06:29.884Z,14.10
2019-05-30T22:09:03.182Z,14.10
2019-05-30T22:11:32.244Z,14.00
2019-05-30T22:14:01.886Z,14.00
2019-05-30T22:16:31.530Z,13.90
2019-05-30T22:19:01.379Z,13.90
2019-05-30T22:21:31.119Z,13.80
2019-05-30T22:24:00.913Z,13.70
2019-05-30T22:26:30.615Z,13.60
2019-05-30T22:29:00.639Z,13.60
2019-05-30T22:31:30.224Z,13.40
2019-05-30T22:34:00.222Z,13.50
2019-05-30T22:36:29.994Z,13.50
2019-05-30T22:38:59.848Z,13.50
2019-05-30T22:41:29.481Z,13.50
2019-05-30T22:43:59.121Z,13.50
2019-05-30T22:46:28.753Z,13.40
2019-05-30T22:48:58.402Z,13.40
2019-05-30T22:51:28.028Z,13.40
2019-05-30T22:53:57.737Z,13.40
2019-05-30T22:56:27.361Z,13.30
2019-05-30T22:58:57.039Z,13.40
2019-05-30T23:01:26.734Z,13.40
2019-05-30T23:03:57.567Z,13.40
2019-05-30T23:06:27.465Z,13.40
2019-05-30T23:08:57.161Z,13.40
2019-05-30T23:11:27.246Z,13.30
2019-05-30T23:13:57.006Z,13.40
2019-05-30T23:16:26.713Z,13.50
2019-05-30T23:18:56.869Z,13.40
2019-05-30T23:21:27.041Z,13.30
2019-05-30T23:23:57.323Z,13.20
2019-05-30T23:26:27.253Z,13.20
2019-05-30T23:28:57.985Z,13.20
2019-05-30T23:31:27.709Z,13.10
2019-05-30T23:33:58.605Z,13.10
2019-05-30T23:36:28.323Z,13.20
2019-05-30T23:38:58.912Z,13.10
2019-05-30T23:41:28.666Z,13.10
2019-05-30T23:44:10.542Z,13.00
2019-05-30T23:46:31.213Z,13.00
2019-05-30T23:49:00.927Z,13.00
2019-05-30T23:51:30.614Z,13.10
2019-05-30T23:54:00.568Z,13.10
2019-05-30T23:56:30.328Z,13.20
2019-05-30T23:59:01.201Z,13.20
